createdAt,value
2019-03-05T00:00:31.171Z,5.90
2019-03-05T00:03:01.162Z,5.80
2019-03-05T00:05:31.222Z,5.60
2019-03-05T00:08:01.061Z,5.60
2019-03-05T00:10:31.135Z,5.50
2019-03-05T00:13:00.783Z,5.60
2019-03-05T00:15:30.809Z,5.60
2019-03-05T00:18:01.002Z,5.80
2019-03-05T00:20:30.807Z,6.00
2019-03-05T00:23:00.601Z,6.00
2019-03-05T00:25:30.620Z,6.00
2019-03-05T00:28:21.326Z,6.10
2019-03-05T00:31:11.994Z,6.00
2019-03-05T00:34:01.030Z,6.10
2019-03-05T00:36:47.507Z,6.00
2019-03-05T00:39:26.874Z,5.90
2019-03-05T00:42:39.798Z,5.90
2019-03-05T00:46:01.351Z,5.90
2019-03-05T00:49:11.464Z,5.80
2019-03-05T00:52:25.664Z,5.80
2019-03-05T00:55:16.621Z,5.80
2019-03-05T00:58:25.582Z,5.70
2019-03-05T01:01:22.562Z,5.60
2019-03-05T01:04:19.531Z,5.60
2019-03-05T01:06:50.147Z,5.60
2019-03-05T01:09:23.009Z,5.60
2019-03-05T01:11:52.817Z,5.60
2019-03-05T01:14:24.564Z,5.60
2019-03-05T01:16:56.436Z,5.60
2019-03-05T01:19:26.390Z,5.70
2019-03-05T01:21:56.988Z,5.70
2019-03-05T01:24:27.306Z,5.80
2019-03-05T01:26:57.417Z,5.80
2019-03-05T01:29:28.100Z,5.80
2019-03-05T01:32:17.082Z,5.90
2019-03-05T01:35:06.394Z,6.00
2019-03-05T01:37:36.943Z,6.00
2019-03-05T01:40:12.659Z,6.10
2019-03-05T01:42:42.850Z,6.10
2019-03-05T01:45:14.000Z,6.10
2019-03-05T01:47:43.758Z,6.10
2019-03-05T01:50:14.516Z,6.20
2019-03-05T01:53:03.716Z,6.20
2019-03-05T01:55:34.120Z,6.20
2019-03-05T01:58:04.234Z,6.10
2019-03-05T02:00:35.215Z,6.10
2019-03-05T02:03:05.252Z,6.30
2019-03-05T02:05:54.577Z,6.20
2019-03-05T02:08:24.950Z,6.20
2019-03-05T02:10:55.201Z,6.20
2019-03-05T02:13:44.117Z,6.30
2019-03-05T02:16:14.192Z,6.20
2019-03-05T02:18:44.855Z,6.10
2019-03-05T02:21:15.098Z,6.10
2019-03-05T02:24:17.914Z,6.00
2019-03-05T02:27:34.569Z,5.90
2019-03-05T02:30:25.930Z,5.90
2019-03-05T02:33:03.409Z,5.90
2019-03-05T02:36:02.095Z,5.90
2019-03-05T02:38:56.715Z,5.90
2019-03-05T02:42:01.488Z,5.90
2019-03-05T02:44:57.356Z,5.80
2019-03-05T02:47:52.497Z,5.90
2019-03-05T02:50:49.569Z,5.90
2019-03-05T02:53:46.291Z,5.90
2019-03-05T02:56:43.614Z,5.80
2019-03-05T02:59:23.320Z,5.80
2019-03-05T03:02:01.043Z,5.80
2019-03-05T03:04:34.855Z,5.80
2019-03-05T03:07:04.917Z,5.80
2019-03-05T03:10:14.288Z,5.80
2019-03-05T03:12:45.092Z,5.90
2019-03-05T03:15:16.812Z,5.90
2019-03-05T03:17:47.494Z,5.90
2019-03-05T03:20:21.739Z,5.90
2019-03-05T03:22:52.083Z,6.00
2019-03-05T03:25:23.380Z,5.90
2019-03-05T03:27:53.912Z,6.00
2019-03-05T03:30:28.345Z,5.90
2019-03-05T03:32:58.975Z,6.00
2019-03-05T03:35:28.807Z,6.00
2019-03-05T03:37:59.117Z,6.00
2019-03-05T03:40:29.027Z,5.90
2019-03-05T03:42:59.681Z,5.90
2019-03-05T03:45:30.310Z,5.80
2019-03-05T03:48:00.403Z,5.60
2019-03-05T03:50:30.303Z,5.60
2019-03-05T03:53:00.398Z,5.60
2019-03-05T03:55:31.071Z,5.60
2019-03-05T03:58:20.597Z,5.60
2019-03-05T04:00:50.362Z,5.50
2019-03-05T04:03:20.950Z,5.40
2019-03-05T04:05:51.552Z,5.30
2019-03-05T04:08:21.907Z,5.30
2019-03-05T04:10:51.835Z,5.20
2019-03-05T04:13:22.450Z,5.10
2019-03-05T04:15:53.125Z,5.00
2019-03-05T04:18:23.147Z,5.00
2019-03-05T04:20:53.770Z,5.00
2019-03-05T04:23:23.875Z,5.10
2019-03-05T04:25:53.854Z,5.00
2019-03-05T04:28:23.786Z,5.00
2019-03-05T04:30:53.503Z,5.00
2019-03-05T04:33:23.658Z,5.00
2019-03-05T04:35:53.838Z,4.90
2019-03-05T04:38:23.905Z,4.90
2019-03-05T04:40:54.140Z,5.00
2019-03-05T04:43:24.511Z,5.00
2019-03-05T04:46:05.140Z,5.00
2019-03-05T04:48:35.671Z,5.10
2019-03-05T04:51:11.789Z,4.90
2019-03-05T04:53:42.575Z,4.90
2019-03-05T04:56:12.810Z,5.00
2019-03-05T04:58:42.853Z,5.10
2019-03-05T05:01:13.293Z,5.20
2019-03-05T05:03:43.263Z,5.10
2019-03-05T05:06:13.440Z,5.00
2019-03-05T05:08:44.050Z,5.10
2019-03-05T05:11:13.848Z,5.30
2019-03-05T05:13:43.819Z,5.20
2019-03-05T05:16:14.006Z,5.20
2019-03-05T05:18:44.262Z,5.30
2019-03-05T05:21:13.979Z,5.40
2019-03-05T05:23:44.306Z,5.50
2019-03-05T05:26:14.198Z,5.40
2019-03-05T05:28:44.094Z,5.50
2019-03-05T05:31:14.044Z,5.50
2019-03-05T05:33:44.634Z,5.50
2019-03-05T05:36:14.717Z,5.50
2019-03-05T05:38:44.971Z,5.60
2019-03-05T05:41:15.022Z,5.60
2019-03-05T05:43:45.587Z,5.60
2019-03-05T05:46:15.315Z,5.60
2019-03-05T05:48:45.637Z,5.60
2019-03-05T05:51:15.934Z,5.50
2019-03-05T05:53:45.645Z,5.50
2019-03-05T05:56:15.367Z,5.50
2019-03-05T05:58:45.130Z,5.50
2019-03-05T06:01:15.017Z,5.50
2019-03-05T06:03:45.422Z,5.50
2019-03-05T06:06:15.938Z,5.60
2019-03-05T06:08:46.198Z,5.60
2019-03-05T06:11:15.949Z,5.60
2019-03-05T06:13:45.675Z,5.70
2019-03-05T06:16:15.313Z,5.70
2019-03-05T06:18:45.045Z,5.70
2019-03-05T06:21:33.975Z,5.70
2019-03-05T06:24:03.726Z,5.80
2019-03-05T06:26:33.401Z,5.80
2019-03-05T06:29:03.030Z,5.80
2019-03-05T06:31:32.706Z,5.80
2019-03-05T06:34:02.402Z,5.90
2019-03-05T06:36:52.518Z,5.90
2019-03-05T06:39:22.694Z,5.90
2019-03-05T06:41:52.613Z,6.00
2019-03-05T06:44:22.401Z,6.00
2019-03-05T06:47:11.542Z,6.00
2019-03-05T06:49:41.726Z,6.00
2019-03-05T06:52:12.127Z,6.00
2019-03-05T06:54:42.134Z,6.00
2019-03-05T06:57:12.170Z,6.00
2019-03-05T06:59:42.762Z,6.00
2019-03-05T07:02:12.823Z,6.00
2019-03-05T07:04:44.497Z,6.10
2019-03-05T07:07:14.778Z,6.10
2019-03-05T07:10:33.717Z,6.20
2019-03-05T07:13:13.038Z,6.10
2019-03-05T07:16:23.402Z,6.20
2019-03-05T07:19:06.130Z,6.30
2019-03-05T07:22:03.272Z,6.20
2019-03-05T07:24:49.943Z,6.30
2019-03-05T07:27:30.997Z,6.30
2019-03-05T07:30:27.161Z,6.30
2019-03-05T07:32:58.645Z,6.30
2019-03-05T07:35:31.118Z,6.40
2019-03-05T07:38:01.438Z,6.40
2019-03-05T07:40:31.197Z,6.40
2019-03-05T07:43:01.206Z,6.40
2019-03-05T07:45:31.286Z,6.40
2019-03-05T07:48:02.837Z,6.40
2019-03-05T07:50:33.191Z,6.40
2019-03-05T07:53:03.739Z,6.40
2019-03-05T07:55:33.789Z,6.40
2019-03-05T07:58:04.273Z,6.40
2019-03-05T08:00:34.587Z,6.40
2019-03-05T08:03:04.331Z,6.40
2019-03-05T08:05:34.180Z,6.50
2019-03-05T08:08:40.059Z,6.60
2019-03-05T08:11:09.869Z,6.60
2019-03-05T08:14:04.166Z,6.60
2019-03-05T08:16:34.833Z,6.60
2019-03-05T08:19:04.929Z,6.60
2019-03-05T08:21:35.291Z,6.60
2019-03-05T08:24:05.470Z,6.70
2019-03-05T08:26:54.826Z,6.60
2019-03-05T08:29:25.481Z,6.70
2019-03-05T08:31:56.234Z,6.80
2019-03-05T08:34:26.221Z,6.80
2019-03-05T08:36:56.526Z,6.80
2019-03-05T08:39:26.842Z,6.80
2019-03-05T08:41:57.193Z,6.80
2019-03-05T08:44:27.418Z,6.90
2019-03-05T08:46:57.310Z,6.90
2019-03-05T08:49:27.303Z,6.90
2019-03-05T08:51:57.185Z,7.00
2019-03-05T08:54:27.156Z,7.00
2019-03-05T08:56:57.021Z,7.10
2019-03-05T08:59:26.763Z,7.20
2019-03-05T09:01:57.150Z,7.20
2019-03-05T09:04:27.640Z,7.20
2019-03-05T09:06:58.116Z,7.30
2019-03-05T09:09:28.773Z,7.30
2019-03-05T09:11:59.044Z,7.30
2019-03-05T09:14:41.147Z,7.20
2019-03-05T09:17:11.726Z,6.90
2019-03-05T09:19:42.067Z,6.70
2019-03-05T09:22:12.525Z,6.70
2019-03-05T09:24:42.569Z,6.90
2019-03-05T09:27:12.926Z,6.90
2019-03-05T09:29:43.197Z,7.10
2019-03-05T09:32:13.450Z,7.10
2019-03-05T09:34:44.230Z,7.30
2019-03-05T09:37:14.563Z,7.40
2019-03-05T09:39:44.958Z,7.60
2019-03-05T09:42:15.551Z,7.80
2019-03-05T09:44:45.876Z,7.90
2019-03-05T09:47:16.367Z,8.10
2019-03-05T09:49:46.715Z,8.40
2019-03-05T09:52:16.518Z,8.60
2019-03-05T09:54:46.818Z,8.70
2019-03-05T09:57:16.986Z,8.50
2019-03-05T09:59:47.370Z,8.50
2019-03-05T10:02:17.881Z,8.40
2019-03-05T10:04:47.853Z,8.50
2019-03-05T10:07:19.198Z,8.60
2019-03-05T10:09:49.768Z,8.60
2019-03-05T10:12:19.915Z,8.80
2019-03-05T10:14:50.414Z,8.70
2019-03-05T10:17:20.715Z,8.50
2019-03-05T10:19:51.290Z,8.50
2019-03-05T10:22:21.867Z,8.50
2019-03-05T10:24:52.195Z,8.50
2019-03-05T10:27:22.942Z,8.60
2019-03-05T10:29:52.934Z,8.50
2019-03-05T10:32:23.042Z,7.80
2019-03-05T10:34:53.509Z,7.50
2019-03-05T10:37:23.828Z,7.30
2019-03-05T10:40:13.470Z,7.10
2019-03-05T10:42:43.543Z,7.00
2019-03-05T10:45:16.190Z,6.90
2019-03-05T10:47:46.871Z,6.70
2019-03-05T10:50:18.962Z,6.50
2019-03-05T10:52:48.798Z,6.40
2019-03-05T10:55:26.203Z,6.40
2019-03-05T10:57:50.909Z,6.50
2019-03-05T11:00:25.151Z,6.60
2019-03-05T11:02:56.005Z,6.60
2019-03-05T11:05:27.603Z,6.60
2019-03-05T11:07:57.984Z,6.60
2019-03-05T11:10:31.217Z,6.70
2019-03-05T11:13:01.874Z,6.80
2019-03-05T11:15:32.173Z,7.00
2019-03-05T11:18:03.291Z,7.10
2019-03-05T11:20:33.479Z,7.20
2019-03-05T11:23:03.280Z,7.30
2019-03-05T11:25:33.838Z,7.40
2019-03-05T11:28:04.002Z,7.40
2019-03-05T11:30:36.325Z,7.50
2019-03-05T11:33:07.119Z,7.60
2019-03-05T11:35:39.076Z,7.60
2019-03-05T11:38:09.457Z,7.70
2019-03-05T11:40:39.578Z,7.80
2019-03-05T11:43:11.746Z,7.80
2019-03-05T11:45:43.633Z,7.80
2019-03-05T11:48:14.289Z,7.90
2019-03-05T11:50:44.529Z,7.90
2019-03-05T11:53:14.845Z,8.00
2019-03-05T11:55:45.190Z,8.10
2019-03-05T11:58:15.490Z,8.20
2019-03-05T12:01:10.687Z,8.20
2019-03-05T12:03:41.006Z,8.20
2019-03-05T12:06:11.319Z,8.30
2019-03-05T12:08:41.053Z,8.30
2019-03-05T12:11:11.114Z,8.40
2019-03-05T12:13:40.951Z,8.40
2019-03-05T12:16:12.934Z,8.40
2019-03-05T12:18:43.542Z,8.40
2019-03-05T12:21:13.488Z,8.40
2019-03-05T12:23:47.219Z,8.50
2019-03-05T12:26:15.885Z,8.50
2019-03-05T12:28:45.970Z,8.50
2019-03-05T12:31:16.178Z,8.60
2019-03-05T12:33:46.503Z,8.60
2019-03-05T12:36:16.942Z,8.70
2019-03-05T12:38:47.250Z,8.70
2019-03-05T12:41:17.226Z,8.80
2019-03-05T12:43:47.226Z,8.90
2019-03-05T12:46:17.090Z,8.90
2019-03-05T12:48:46.942Z,9.00
2019-03-05T12:51:17.386Z,9.10
2019-03-05T12:53:47.114Z,9.20
2019-03-05T12:56:23.867Z,9.20
2019-03-05T12:58:48.336Z,9.20
2019-03-05T13:01:18.173Z,9.20
2019-03-05T13:03:47.958Z,9.20
2019-03-05T13:06:17.694Z,9.30
2019-03-05T13:08:47.451Z,9.30
2019-03-05T13:11:17.166Z,9.20
2019-03-05T13:13:47.617Z,9.30
2019-03-05T13:16:18.786Z,9.30
2019-03-05T13:18:48.692Z,9.40
2019-03-05T13:21:18.618Z,9.40
2019-03-05T13:23:48.489Z,9.40
2019-03-05T13:26:18.230Z,9.40
2019-03-05T13:28:47.949Z,9.40
2019-03-05T13:31:17.767Z,9.40
2019-03-05T13:33:47.521Z,9.40
2019-03-05T13:36:17.459Z,9.40
2019-03-05T13:38:47.421Z,9.50
2019-03-05T13:41:17.210Z,9.50
2019-03-05T13:43:47.335Z,9.50
2019-03-05T13:46:17.561Z,9.50
2019-03-05T13:49:27.241Z,9.60
2019-03-05T13:52:23.514Z,9.60
2019-03-05T13:55:26.876Z,9.50
2019-03-05T13:58:25.602Z,9.60
2019-03-05T14:00:55.810Z,9.60
2019-03-05T14:03:33.269Z,9.50
2019-03-05T14:06:59.630Z,9.50
2019-03-05T14:09:28.175Z,9.50
2019-03-05T14:11:59.565Z,9.60
2019-03-05T14:14:30.554Z,9.60
2019-03-05T14:17:21.252Z,9.80
2019-03-05T14:19:51.392Z,9.80
2019-03-05T14:22:21.304Z,9.90
2019-03-05T14:25:01.638Z,9.90
2019-03-05T14:27:22.922Z,9.90
2019-03-05T14:29:52.697Z,9.90
2019-03-05T14:32:22.590Z,9.90
2019-03-05T14:34:59.137Z,10.00
2019-03-05T14:37:30.617Z,10.00
2019-03-05T14:40:22.369Z,10.00
2019-03-05T14:42:32.824Z,10.10
2019-03-05T14:45:02.889Z,10.20
2019-03-05T14:47:32.649Z,10.20
2019-03-05T14:50:02.494Z,10.20
2019-03-05T14:52:32.411Z,10.10
2019-03-05T14:55:02.280Z,10.10
2019-03-05T14:57:32.048Z,10.10
2019-03-05T15:00:01.894Z,10.10
2019-03-05T15:02:32.099Z,10.10
2019-03-05T15:05:01.761Z,10.10
2019-03-05T15:07:31.467Z,10.10
2019-03-05T15:10:01.233Z,10.10
2019-03-05T15:12:30.954Z,10.10
2019-03-05T15:15:01.541Z,10.20
2019-03-05T15:17:31.483Z,10.20
2019-03-05T15:20:01.778Z,10.20
2019-03-05T15:22:31.770Z,10.30
2019-03-05T15:25:04.320Z,10.20
2019-03-05T15:27:33.543Z,10.20
2019-03-05T15:30:03.593Z,10.20
2019-03-05T15:32:34.090Z,10.20
2019-03-05T15:35:03.879Z,10.20
2019-03-05T15:37:33.622Z,10.20
2019-03-05T15:40:03.564Z,10.20
2019-03-05T15:42:33.845Z,10.20
2019-03-05T15:45:04.242Z,10.20
2019-03-05T15:47:33.963Z,10.20
2019-03-05T15:50:03.867Z,10.20
2019-03-05T15:52:34.219Z,10.20
2019-03-05T15:55:05.232Z,10.20
2019-03-05T15:57:35.218Z,10.30
2019-03-05T16:00:07.959Z,10.40
2019-03-05T16:02:38.003Z,10.50
2019-03-05T16:05:11.659Z,10.50
2019-03-05T16:07:39.880Z,10.50
2019-03-05T16:10:13.292Z,10.50
2019-03-05T16:12:43.637Z,10.50
2019-03-05T16:15:14.174Z,10.50
2019-03-05T16:17:44.515Z,10.60
2019-03-05T16:20:14.918Z,10.60
2019-03-05T16:22:44.765Z,10.50
2019-03-05T16:25:14.948Z,10.50
2019-03-05T16:27:44.979Z,10.50
2019-03-05T16:30:35.978Z,10.50
2019-03-05T16:33:53.330Z,10.50
2019-03-05T16:36:40.942Z,10.50
2019-03-05T16:39:18.443Z,10.50
2019-03-05T16:41:57.456Z,10.60
2019-03-05T16:44:36.057Z,10.50
2019-03-05T16:47:28.441Z,10.50
2019-03-05T16:50:11.626Z,10.40
2019-03-05T16:53:05.262Z,10.40
2019-03-05T16:55:52.775Z,10.40
2019-03-05T16:58:53.843Z,10.40
2019-03-05T17:01:32.956Z,10.30
2019-03-05T17:04:12.874Z,10.30
2019-03-05T17:07:14.062Z,10.30
2019-03-05T17:10:15.500Z,10.30
2019-03-05T17:12:45.318Z,10.30
2019-03-05T17:15:15.590Z,10.40
2019-03-05T17:17:45.646Z,10.30
2019-03-05T17:20:15.745Z,10.30
2019-03-05T17:22:45.850Z,10.20
2019-03-05T17:25:16.546Z,10.30
2019-03-05T17:27:46.289Z,10.30
2019-03-05T17:30:16.842Z,10.20
2019-03-05T17:32:47.101Z,10.20
2019-03-05T17:35:17.303Z,10.20
2019-03-05T17:37:47.922Z,10.20
2019-03-05T17:40:17.752Z,10.20
2019-03-05T17:42:50.160Z,10.20
2019-03-05T17:45:21.054Z,10.20
2019-03-05T17:47:51.681Z,10.20
2019-03-05T17:50:22.007Z,10.20
2019-03-05T17:52:51.737Z,10.20
2019-03-05T17:55:25.319Z,10.30
2019-03-05T17:57:53.657Z,10.30
2019-03-05T18:00:34.534Z,10.20
2019-03-05T18:03:04.886Z,10.30
2019-03-05T18:05:34.750Z,10.30
2019-03-05T18:08:04.553Z,10.30
2019-03-05T18:10:34.588Z,10.30
2019-03-05T18:13:04.655Z,10.30
2019-03-05T18:15:34.646Z,10.30
2019-03-05T18:18:04.849Z,10.40
2019-03-05T18:20:34.922Z,10.30
2019-03-05T18:23:04.752Z,10.30
2019-03-05T18:25:34.759Z,10.30
2019-03-05T18:28:04.560Z,10.40
2019-03-05T18:30:34.691Z,10.30
2019-03-05T18:33:04.531Z,10.30
2019-03-05T18:35:34.303Z,10.20
2019-03-05T18:38:04.258Z,10.20
2019-03-05T18:40:34.360Z,10.20
2019-03-05T18:43:04.194Z,10.20
2019-03-05T18:45:33.933Z,10.30
2019-03-05T18:48:04.251Z,10.40
2019-03-05T18:50:34.196Z,10.30
2019-03-05T18:53:04.031Z,10.40
2019-03-05T18:55:33.891Z,10.30
2019-03-05T18:58:03.948Z,10.20
2019-03-05T19:00:34.015Z,10.20
2019-03-05T19:03:04.146Z,10.20
2019-03-05T19:05:34.525Z,10.20
2019-03-05T19:08:04.901Z,10.20
2019-03-05T19:10:34.740Z,10.10
2019-03-05T19:13:04.654Z,10.20
2019-03-05T19:15:34.766Z,10.20
2019-03-05T19:18:06.328Z,10.20
2019-03-05T19:20:36.116Z,10.10
2019-03-05T19:23:05.967Z,10.10
2019-03-05T19:25:35.778Z,10.00
2019-03-05T19:28:06.057Z,10.10
2019-03-05T19:30:36.147Z,10.00
2019-03-05T19:33:06.346Z,10.10
2019-03-05T19:35:36.434Z,10.10
2019-03-05T19:38:07.006Z,10.10
2019-03-05T19:40:37.383Z,10.00
2019-03-05T19:43:07.394Z,10.10
2019-03-05T19:45:37.488Z,10.20
2019-03-05T19:48:07.574Z,10.10
2019-03-05T19:50:37.983Z,10.20
2019-03-05T19:53:07.710Z,10.20
2019-03-05T19:55:38.087Z,10.10
2019-03-05T19:58:09.341Z,10.10
2019-03-05T20:00:46.759Z,10.10
2019-03-05T20:03:16.658Z,10.20
2019-03-05T20:05:49.543Z,10.20
2019-03-05T20:08:19.725Z,10.10
2019-03-05T20:10:50.070Z,9.90
2019-03-05T20:13:20.642Z,9.90
2019-03-05T20:15:51.458Z,10.10
2019-03-05T20:18:21.566Z,10.10
2019-03-05T20:20:52.190Z,10.00
2019-03-05T20:23:21.954Z,9.90
2019-03-05T20:25:51.858Z,9.90
2019-03-05T20:28:22.754Z,9.90
2019-03-05T20:30:53.142Z,9.90
2019-03-05T20:33:23.019Z,9.90
2019-03-05T20:35:53.709Z,9.80
2019-03-05T20:38:24.174Z,9.80
2019-03-05T20:40:54.831Z,9.90
2019-03-05T20:43:24.938Z,9.90
2019-03-05T20:45:58.598Z,9.90
2019-03-05T20:48:29.032Z,9.90
2019-03-05T20:50:59.550Z,9.80
2019-03-05T20:53:29.911Z,9.80
2019-03-05T20:56:00.086Z,9.90
2019-03-05T20:58:30.626Z,9.90
2019-03-05T21:01:00.851Z,9.90
2019-03-05T21:03:31.167Z,9.90
2019-03-05T21:06:01.802Z,9.90
2019-03-05T21:08:32.238Z,9.70
2019-03-05T21:11:02.097Z,9.70
2019-03-05T21:13:32.370Z,9.80
2019-03-05T21:16:02.247Z,9.70
2019-03-05T21:18:32.641Z,9.70
2019-03-05T21:21:03.307Z,9.60
2019-03-05T21:23:33.929Z,9.60
2019-03-05T21:26:03.851Z,9.60
2019-03-05T21:28:33.588Z,9.60
2019-03-05T21:31:03.368Z,9.50
2019-03-05T21:33:33.601Z,9.50
2019-03-05T21:36:03.473Z,9.40
2019-03-05T21:38:33.310Z,9.50
2019-03-05T21:41:03.108Z,9.50
2019-03-05T21:43:33.958Z,9.50
2019-03-05T21:46:07.190Z,9.50
2019-03-05T21:48:37.894Z,9.50
2019-03-05T21:51:08.209Z,9.50
2019-03-05T21:53:38.002Z,9.70
2019-03-05T21:56:08.092Z,9.70
2019-03-05T21:58:37.817Z,9.50
2019-03-05T22:01:07.670Z,9.40
2019-03-05T22:03:37.386Z,9.10
2019-03-05T22:06:08.154Z,9.10
2019-03-05T22:08:38.047Z,8.90
2019-03-05T22:11:07.842Z,8.70
2019-03-05T22:13:37.477Z,8.60
2019-03-05T22:16:07.430Z,8.40
2019-03-05T22:18:37.133Z,8.50
2019-03-05T22:21:06.833Z,8.50
2019-03-05T22:23:36.744Z,8.30
2019-03-05T22:26:06.766Z,8.30
2019-03-05T22:28:36.837Z,8.20
2019-03-05T22:31:06.558Z,8.10
2019-03-05T22:33:36.346Z,7.90
2019-03-05T22:36:06.674Z,7.70
2019-03-05T22:38:36.785Z,7.60
2019-03-05T22:41:07.086Z,7.50
2019-03-05T22:43:36.763Z,7.50
2019-03-05T22:46:06.547Z,7.50
2019-03-05T22:48:36.267Z,7.50
2019-03-05T22:51:06.174Z,7.40
2019-03-05T22:53:35.959Z,7.30
2019-03-05T22:56:06.061Z,7.10
2019-03-05T22:58:36.252Z,7.10
2019-03-05T23:01:17.401Z,7.00
2019-03-05T23:03:58.782Z,6.90
2019-03-05T23:06:29.186Z,6.90
2019-03-05T23:08:59.520Z,6.80
2019-03-05T23:11:30.169Z,6.70
2019-03-05T23:14:00.825Z,6.60
2019-03-05T23:16:31.245Z,6.50
2019-03-05T23:19:01.361Z,6.40
2019-03-05T23:21:31.654Z,6.30
2019-03-05T23:24:01.965Z,6.20
2019-03-05T23:26:32.100Z,6.10
2019-03-05T23:29:02.078Z,6.10
2019-03-05T23:31:32.606Z,6.00
2019-03-05T23:34:03.733Z,5.90
2019-03-05T23:36:33.877Z,5.90
2019-03-05T23:39:05.367Z,5.90
2019-03-05T23:41:35.472Z,5.80
2019-03-05T23:44:06.271Z,5.80
2019-03-05T23:46:36.209Z,5.70
2019-03-05T23:49:06.326Z,5.60
2019-03-05T23:51:36.631Z,5.60
2019-03-05T23:54:06.977Z,5.60
2019-03-05T23:56:37.325Z,5.60
2019-03-05T23:59:07.294Z,5.40
